createdAt,value
2018-06-27T00:00:09.258Z,0.00
2018-06-27T00:01:09.244Z,0.00
2018-06-27T00:02:09.251Z,0.00
2018-06-27T00:03:09.259Z,0.00
2018-06-27T00:04:09.233Z,0.00
2018-06-27T00:05:09.233Z,0.00
2018-06-27T00:06:09.245Z,0.00
2018-06-27T00:07:09.222Z,0.00
2018-06-27T00:08:09.209Z,0.00
2018-06-27T00:09:09.212Z,0.00
2018-06-27T00:10:09.214Z,0.00
2018-06-27T00:11:09.205Z,0.00
2018-06-27T00:12:09.199Z,0.00
2018-06-27T00:13:09.245Z,0.00
2018-06-27T00:14:09.194Z,0.00
2018-06-27T00:15:09.191Z,0.00
2018-06-27T00:16:09.191Z,0.00
2018-06-27T00:17:09.181Z,0.00
2018-06-27T00:18:09.189Z,0.00
2018-06-27T00:19:09.173Z,0.00
2018-06-27T00:20:09.167Z,0.00
2018-06-27T00:21:09.176Z,0.00
2018-06-27T00:22:09.158Z,0.00
2018-06-27T00:23:09.176Z,0.00
2018-06-27T00:24:09.150Z,0.00
2018-06-27T00:25:09.149Z,0.00
2018-06-27T00:26:09.173Z,0.00
2018-06-27T00:27:09.140Z,0.00
2018-06-27T00:28:09.155Z,0.00
2018-06-27T00:29:09.144Z,0.00
2018-06-27T00:30:09.131Z,0.00
2018-06-27T00:31:09.122Z,0.00
2018-06-27T00:32:09.116Z,0.00
2018-06-27T00:33:09.119Z,0.00
2018-06-27T00:34:09.110Z,0.00
2018-06-27T00:35:09.109Z,0.00
2018-06-27T00:36:09.103Z,0.00
2018-06-27T00:37:09.103Z,0.00
2018-06-27T00:38:09.094Z,0.00
2018-06-27T00:39:09.093Z,0.00
2018-06-27T00:40:09.084Z,0.00
2018-06-27T00:41:09.084Z,0.00
2018-06-27T00:42:09.090Z,0.00
2018-06-27T00:43:09.073Z,0.00
2018-06-27T00:44:09.070Z,0.00
2018-06-27T00:45:09.100Z,0.00
2018-06-27T00:46:09.062Z,0.00
2018-06-27T00:47:09.060Z,0.00
2018-06-27T00:48:09.051Z,0.00
2018-06-27T00:49:09.043Z,0.00
2018-06-27T00:50:09.047Z,0.00
2018-06-27T00:51:09.037Z,0.00
2018-06-27T00:52:09.051Z,0.00
2018-06-27T00:53:09.030Z,0.00
2018-06-27T00:54:09.018Z,0.00
2018-06-27T00:55:09.025Z,0.00
2018-06-27T00:56:09.015Z,0.00
2018-06-27T00:57:09.014Z,0.00
2018-06-27T00:58:09.004Z,0.00
2018-06-27T00:59:09.000Z,0.00
2018-06-27T01:00:09.008Z,0.00
2018-06-27T01:01:09.012Z,0.00
2018-06-27T01:02:09.013Z,0.00
2018-06-27T01:03:08.984Z,0.00
2018-06-27T01:04:08.980Z,0.00
2018-06-27T01:05:08.973Z,0.00
2018-06-27T01:06:08.971Z,0.00
2018-06-27T01:07:08.963Z,0.00
2018-06-27T01:08:08.968Z,0.00
2018-06-27T01:09:08.956Z,0.00
2018-06-27T01:10:08.954Z,0.00
2018-06-27T01:11:08.952Z,0.00
2018-06-27T01:12:08.941Z,0.00
2018-06-27T01:13:08.940Z,0.00
2018-06-27T01:14:08.937Z,0.00
2018-06-27T01:15:08.992Z,0.00
2018-06-27T01:16:08.925Z,0.00
2018-06-27T01:17:08.918Z,0.00
2018-06-27T01:18:08.923Z,0.00
2018-06-27T01:19:08.911Z,0.00
2018-06-27T01:20:08.923Z,0.00
2018-06-27T01:21:09.058Z,0.00
2018-06-27T01:22:08.899Z,0.00
2018-06-27T01:23:08.901Z,0.00
2018-06-27T01:24:08.890Z,0.00
2018-06-27T01:25:08.885Z,0.00
2018-06-27T01:26:08.882Z,0.00
2018-06-27T01:27:08.879Z,0.00
2018-06-27T01:28:08.875Z,0.00
2018-06-27T01:29:08.904Z,0.00
2018-06-27T01:30:08.864Z,0.00
2018-06-27T01:31:08.892Z,0.00
2018-06-27T02:04:01.678Z,0.00
2018-06-27T02:05:01.648Z,0.00
2018-06-27T02:06:01.657Z,0.00
2018-06-27T02:07:01.627Z,0.00
2018-06-27T02:08:01.614Z,0.00
2018-06-27T02:09:01.610Z,0.00
2018-06-27T02:10:01.624Z,0.00
2018-06-27T02:11:01.588Z,0.00
2018-06-27T02:12:01.576Z,0.00
2018-06-27T02:13:01.576Z,0.00
2018-06-27T02:14:01.585Z,0.00
2018-06-27T02:15:01.566Z,0.00
2018-06-27T02:16:01.557Z,0.00
2018-06-27T02:17:01.549Z,0.00
2018-06-27T02:18:01.549Z,0.00
2018-06-27T02:19:01.529Z,0.00
2018-06-27T02:20:01.529Z,0.00
2018-06-27T02:21:01.544Z,0.00
2018-06-27T02:22:01.521Z,0.00
2018-06-27T02:23:01.709Z,0.00
2018-06-27T02:24:01.549Z,0.00
2018-06-27T02:25:01.505Z,0.00
2018-06-27T02:26:01.498Z,0.00
2018-06-27T02:27:01.532Z,0.00
2018-06-27T02:28:01.483Z,0.00
2018-06-27T02:29:01.512Z,0.00
2018-06-27T02:30:01.488Z,0.00
2018-06-27T02:31:01.517Z,0.00
2018-06-27T02:32:01.473Z,0.00
2018-06-27T02:33:01.470Z,0.00
2018-06-27T02:34:01.465Z,0.00
2018-06-27T02:35:01.462Z,0.00
2018-06-27T02:36:01.459Z,0.00
2018-06-27T02:37:01.458Z,0.00
2018-06-27T02:38:01.445Z,0.00
2018-06-27T02:39:01.449Z,0.00
2018-06-27T02:40:01.440Z,0.00
2018-06-27T02:41:01.447Z,0.00
2018-06-27T02:42:01.426Z,0.00
2018-06-27T02:43:01.425Z,0.00
2018-06-27T02:44:01.423Z,0.00
2018-06-27T02:45:01.421Z,0.00
2018-06-27T02:46:01.410Z,0.00
2018-06-27T02:47:01.421Z,0.00
2018-06-27T02:48:01.396Z,0.00
2018-06-27T02:49:01.398Z,0.00
2018-06-27T02:50:01.394Z,0.00
2018-06-27T02:51:01.399Z,0.00
2018-06-27T02:52:01.382Z,0.00
2018-06-27T02:53:01.384Z,0.00
2018-06-27T02:54:01.378Z,0.00
2018-06-27T02:55:01.373Z,0.00
2018-06-27T02:56:01.371Z,0.00
2018-06-27T02:57:01.523Z,0.00
2018-06-27T02:58:01.390Z,0.00
2018-06-27T02:59:01.357Z,0.00
2018-06-27T03:00:01.560Z,0.00
2018-06-27T03:01:01.348Z,0.00
2018-06-27T03:02:01.346Z,0.00
2018-06-27T03:03:01.330Z,0.00
2018-06-27T03:04:01.335Z,0.00
2018-06-27T03:05:01.325Z,0.00
2018-06-27T03:06:01.334Z,0.00
2018-06-27T03:07:01.329Z,0.00
2018-06-27T03:08:01.330Z,0.00
2018-06-27T03:09:01.369Z,0.00
2018-06-27T03:10:01.318Z,0.00
2018-06-27T03:11:01.308Z,0.00
2018-06-27T03:12:01.311Z,5.63
2018-06-27T03:13:01.299Z,5.63
2018-06-27T03:14:01.296Z,5.63
2018-06-27T03:15:01.289Z,5.63
2018-06-27T03:16:01.312Z,5.63
2018-06-27T03:17:01.279Z,5.63
2018-06-27T03:18:01.275Z,5.63
2018-06-27T03:19:01.284Z,11.25
2018-06-27T03:20:01.277Z,11.25
2018-06-27T03:21:01.261Z,11.25
2018-06-27T03:22:01.261Z,11.25
2018-06-27T03:23:01.254Z,11.25
2018-06-27T03:24:01.250Z,16.88
2018-06-27T03:25:01.248Z,16.88
2018-06-27T03:26:01.245Z,16.88
2018-06-27T03:27:01.240Z,16.88
2018-06-27T03:28:01.234Z,22.50
2018-06-27T03:29:01.232Z,22.50
2018-06-27T03:30:01.229Z,22.50
2018-06-27T03:31:01.225Z,28.13
2018-06-27T03:32:01.220Z,28.13
2018-06-27T03:33:01.211Z,33.75
2018-06-27T03:34:01.210Z,39.38
2018-06-27T03:35:01.210Z,39.38
2018-06-27T03:36:01.210Z,45.00
2018-06-27T03:37:01.197Z,45.00
2018-06-27T03:38:01.193Z,56.25
2018-06-27T03:39:01.231Z,61.88
2018-06-27T03:40:01.197Z,67.50
2018-06-27T03:41:01.183Z,67.50
2018-06-27T03:42:01.185Z,73.13
2018-06-27T03:43:01.170Z,78.75
2018-06-27T03:44:01.168Z,84.38
2018-06-27T03:45:01.170Z,90.00
2018-06-27T03:46:01.161Z,95.63
2018-06-27T03:47:01.152Z,101.25
2018-06-27T03:48:01.150Z,101.25
2018-06-27T03:49:01.163Z,106.88
2018-06-27T03:50:01.141Z,106.88
2018-06-27T03:51:01.138Z,112.50
2018-06-27T03:52:01.137Z,112.50
2018-06-27T03:53:01.129Z,118.13
2018-06-27T03:54:01.135Z,118.13
2018-06-27T03:55:01.124Z,118.13
2018-06-27T03:56:01.118Z,123.75
2018-06-27T03:57:01.116Z,123.75
2018-06-27T03:58:01.111Z,129.38
2018-06-27T03:59:01.142Z,135.00
2018-06-27T04:00:01.122Z,135.00
2018-06-27T04:01:01.101Z,140.63
2018-06-27T04:02:01.114Z,140.63
2018-06-27T04:03:01.102Z,146.25
2018-06-27T04:04:01.088Z,151.88
2018-06-27T04:05:01.087Z,151.88
2018-06-27T04:06:01.141Z,157.50
2018-06-27T04:07:01.064Z,163.13
2018-06-27T04:08:01.072Z,174.38
2018-06-27T04:09:01.068Z,168.75
2018-06-27T04:10:01.068Z,174.38
2018-06-27T04:11:01.059Z,180.00
2018-06-27T04:12:01.057Z,180.00
2018-06-27T04:13:01.252Z,185.63
2018-06-27T04:14:01.049Z,191.25
2018-06-27T04:15:01.175Z,191.25
2018-06-27T04:16:01.068Z,196.88
2018-06-27T04:17:01.043Z,202.50
2018-06-27T04:18:01.055Z,208.13
2018-06-27T04:19:01.027Z,208.13
2018-06-27T04:20:01.080Z,213.75
2018-06-27T04:21:01.023Z,219.38
2018-06-27T04:22:01.048Z,219.38
2018-06-27T04:23:01.013Z,225.00
2018-06-27T04:24:01.039Z,225.00
2018-06-27T04:25:01.021Z,230.63
2018-06-27T04:26:00.994Z,230.63
2018-06-27T04:27:00.996Z,236.25
2018-06-27T04:28:00.991Z,236.25
2018-06-27T04:29:01.004Z,241.88
2018-06-27T04:30:01.010Z,241.88
2018-06-27T04:31:00.983Z,247.50
2018-06-27T04:32:00.980Z,253.13
2018-06-27T04:33:00.995Z,253.13
2018-06-27T04:34:00.979Z,258.75
2018-06-27T04:35:00.958Z,264.38
2018-06-27T04:36:00.985Z,264.38
2018-06-27T04:37:00.955Z,275.63
2018-06-27T04:38:00.989Z,275.63
2018-06-27T04:39:00.978Z,275.63
2018-06-27T04:40:00.987Z,281.25
2018-06-27T04:41:00.954Z,281.25
2018-06-27T04:42:00.943Z,286.88
2018-06-27T04:43:01.624Z,292.50
2018-06-27T04:44:00.939Z,292.50
2018-06-27T04:45:00.927Z,298.13
2018-06-27T04:46:00.929Z,309.38
2018-06-27T04:47:00.925Z,303.75
2018-06-27T04:48:00.926Z,309.38
2018-06-27T04:49:01.225Z,315.00
2018-06-27T04:50:00.950Z,315.00
2018-06-27T04:51:00.913Z,315.00
2018-06-27T04:52:01.027Z,320.63
2018-06-27T04:53:00.905Z,326.25
2018-06-27T04:54:00.915Z,326.25
2018-06-27T04:55:01.036Z,331.88
2018-06-27T04:56:00.894Z,331.88
2018-06-27T04:57:00.892Z,337.50
2018-06-27T04:58:00.893Z,337.50
2018-06-27T04:59:00.887Z,331.88
2018-06-27T05:00:00.884Z,326.25
2018-06-27T05:01:00.885Z,331.88
2018-06-27T05:02:00.924Z,331.88
2018-06-27T05:03:00.925Z,337.50
2018-06-27T05:04:00.863Z,337.50
2018-06-27T05:05:00.870Z,343.13
2018-06-27T05:06:00.867Z,348.75
2018-06-27T05:07:00.859Z,348.75
2018-06-27T05:08:00.890Z,354.38
2018-06-27T05:09:00.866Z,354.38
2018-06-27T05:10:00.848Z,360.00
2018-06-27T05:11:00.868Z,360.00
2018-06-27T05:12:00.851Z,365.63
2018-06-27T05:13:00.886Z,371.25
2018-06-27T05:14:00.824Z,371.25
2018-06-27T05:15:00.836Z,376.88
2018-06-27T05:16:00.864Z,382.50
2018-06-27T05:17:00.826Z,388.13
2018-06-27T05:18:00.836Z,388.13
2018-06-27T05:19:00.814Z,393.75
2018-06-27T05:20:00.815Z,393.75
2018-06-27T05:21:00.820Z,393.75
2018-06-27T05:22:00.811Z,399.38
2018-06-27T05:23:00.803Z,399.38
2018-06-27T05:24:00.869Z,405.00
2018-06-27T05:25:00.802Z,405.00
2018-06-27T05:26:00.796Z,410.63
2018-06-27T05:27:00.795Z,410.63
2018-06-27T05:28:00.803Z,416.25
2018-06-27T05:29:00.809Z,421.88
2018-06-27T05:30:00.789Z,421.88
2018-06-27T05:31:00.801Z,427.50
2018-06-27T05:32:00.792Z,433.13
2018-06-27T05:33:00.777Z,438.75
2018-06-27T05:34:00.791Z,450.00
2018-06-27T05:35:00.764Z,444.38
2018-06-27T05:36:00.797Z,450.00
2018-06-27T05:37:00.787Z,455.63
2018-06-27T05:38:00.770Z,461.25
2018-06-27T05:39:00.761Z,461.25
2018-06-27T05:40:00.761Z,466.88
2018-06-27T05:41:00.755Z,466.88
2018-06-27T05:42:00.756Z,466.88
2018-06-27T05:43:00.753Z,466.88
2018-06-27T05:44:00.745Z,472.50
2018-06-27T05:45:00.754Z,472.50
2018-06-27T05:46:00.747Z,472.50
2018-06-27T05:47:00.741Z,478.13
2018-06-27T05:48:00.735Z,489.38
2018-06-27T05:49:00.733Z,489.38
2018-06-27T05:50:00.728Z,489.38
2018-06-27T05:51:00.729Z,495.00
2018-06-27T05:52:00.724Z,523.13
2018-06-27T05:53:00.722Z,528.75
2018-06-27T05:54:00.717Z,523.13
2018-06-27T05:55:00.724Z,523.13
2018-06-27T05:56:00.736Z,523.13
2018-06-27T05:57:00.711Z,528.75
2018-06-27T05:58:00.740Z,528.75
2018-06-27T05:59:00.714Z,540.00
2018-06-27T06:00:00.707Z,540.00
2018-06-27T06:01:00.699Z,534.38
2018-06-27T06:02:00.704Z,540.00
2018-06-27T06:03:00.695Z,545.63
2018-06-27T06:04:00.698Z,545.63
2018-06-27T06:05:00.705Z,551.25
2018-06-27T06:06:00.692Z,551.25
2018-06-27T06:07:00.679Z,556.88
2018-06-27T06:08:00.682Z,556.88
2018-06-27T06:09:00.688Z,562.50
2018-06-27T06:10:00.733Z,562.50
2018-06-27T06:11:00.676Z,562.50
2018-06-27T06:12:00.667Z,568.13
2018-06-27T06:13:00.671Z,568.13
2018-06-27T06:14:00.770Z,573.75
2018-06-27T06:15:00.656Z,573.75
2018-06-27T06:16:00.658Z,573.75
2018-06-27T06:17:00.649Z,573.75
2018-06-27T06:18:00.657Z,579.38
2018-06-27T06:19:00.663Z,579.38
2018-06-27T06:20:00.665Z,579.38
2018-06-27T06:21:00.653Z,590.63
2018-06-27T06:22:00.655Z,585.00
2018-06-27T06:23:00.646Z,585.00
2018-06-27T06:24:00.650Z,590.63
2018-06-27T06:25:00.644Z,596.25
2018-06-27T06:26:00.643Z,596.25
2018-06-27T06:27:00.647Z,607.50
2018-06-27T06:28:00.637Z,607.50
2018-06-27T06:29:00.631Z,607.50
2018-06-27T06:30:00.632Z,601.88
2018-06-27T06:31:00.632Z,596.25
2018-06-27T06:32:00.694Z,601.88
2018-06-27T06:33:00.629Z,601.88
2018-06-27T06:34:00.629Z,601.88
2018-06-27T06:35:00.678Z,596.25
2018-06-27T06:36:00.624Z,596.25
2018-06-27T06:37:00.622Z,596.25
2018-06-27T06:38:00.618Z,596.25
2018-06-27T06:39:00.616Z,601.88
2018-06-27T06:40:00.606Z,601.88
2018-06-27T06:41:00.612Z,607.50
2018-06-27T06:42:00.610Z,607.50
2018-06-27T06:43:00.610Z,618.75
2018-06-27T06:44:00.611Z,607.50
2018-06-27T06:45:00.632Z,618.75
2018-06-27T06:46:00.715Z,624.38
2018-06-27T06:47:00.701Z,624.38
2018-06-27T06:48:00.608Z,624.38
2018-06-27T06:49:00.791Z,630.00
2018-06-27T06:50:00.598Z,630.00
2018-06-27T06:51:00.596Z,630.00
2018-06-27T06:52:00.600Z,635.63
2018-06-27T06:53:00.612Z,630.00
2018-06-27T06:54:00.597Z,630.00
2018-06-27T06:55:00.592Z,630.00
2018-06-27T06:56:00.590Z,630.00
2018-06-27T06:57:00.592Z,635.63
2018-06-27T06:58:00.585Z,635.63
2018-06-27T06:59:00.608Z,624.38
2018-06-27T07:00:00.585Z,635.63
2018-06-27T07:01:00.589Z,652.50
2018-06-27T07:02:00.583Z,680.63
2018-06-27T07:03:00.674Z,714.38
2018-06-27T07:04:00.580Z,787.50
2018-06-27T07:05:00.653Z,1546.88
2018-06-27T07:06:00.586Z,2295.00
2018-06-27T07:07:00.593Z,2643.75
2018-06-27T07:08:00.597Z,2947.50
2018-06-27T07:09:00.577Z,2992.50
2018-06-27T07:10:00.604Z,2874.38
2018-06-27T07:11:00.871Z,2829.38
2018-06-27T07:12:00.590Z,2863.13
2018-06-27T07:13:00.591Z,2941.88
2018-06-27T07:14:00.597Z,3037.50
2018-06-27T07:15:00.599Z,3273.75
2018-06-27T07:16:00.615Z,3166.88
2018-06-27T07:17:00.619Z,3121.88
2018-06-27T07:18:00.628Z,2919.38
2018-06-27T07:19:00.625Z,3088.13
2018-06-27T07:20:00.632Z,3459.38
2018-06-27T07:21:00.654Z,3110.63
2018-06-27T07:22:00.651Z,3020.63
2018-06-27T07:23:00.656Z,3307.50
2018-06-27T07:24:00.667Z,3375.00
2018-06-27T07:25:00.679Z,3358.13
2018-06-27T07:26:00.678Z,3189.38
2018-06-27T07:27:00.688Z,3256.88
2018-06-27T07:28:00.701Z,3155.63
2018-06-27T07:29:00.709Z,3420.00
2018-06-27T07:30:00.761Z,3189.38
2018-06-27T07:31:00.718Z,2255.63
2018-06-27T07:32:00.787Z,2885.63
2018-06-27T07:33:00.738Z,3251.25
2018-06-27T07:34:00.743Z,2902.50
2018-06-27T07:35:00.751Z,3178.13
2018-06-27T07:36:00.876Z,3746.25
2018-06-27T07:37:00.780Z,3346.88
2018-06-27T07:38:00.800Z,3358.13
2018-06-27T07:39:00.837Z,3571.88
2018-06-27T07:40:00.887Z,3808.13
2018-06-27T07:41:00.947Z,3560.63
2018-06-27T07:42:00.829Z,3313.13
2018-06-27T07:43:00.884Z,3425.63
2018-06-27T07:44:00.854Z,3543.75
2018-06-27T07:45:00.974Z,3425.63
2018-06-27T07:46:00.913Z,3397.50
2018-06-27T07:47:00.936Z,3420.00
2018-06-27T07:48:00.893Z,3678.75
2018-06-27T07:49:00.900Z,3695.63
2018-06-27T07:50:00.911Z,3723.75
2018-06-27T07:51:00.927Z,3594.38
2018-06-27T07:52:00.936Z,3622.50
2018-06-27T07:53:00.951Z,3386.25
2018-06-27T07:54:00.958Z,3403.13
2018-06-27T07:55:00.975Z,3706.88
2018-06-27T07:56:00.979Z,3892.50
2018-06-27T07:57:00.993Z,3667.50
2018-06-27T07:58:01.011Z,3487.50
2018-06-27T07:59:01.052Z,3583.13
2018-06-27T08:00:01.021Z,3588.75
2018-06-27T08:01:01.081Z,3746.25
2018-06-27T08:02:01.075Z,4145.63
2018-06-27T08:03:01.071Z,3903.75
2018-06-27T08:04:01.081Z,3965.63
2018-06-27T08:05:01.105Z,3870.00
2018-06-27T08:06:01.115Z,3481.88
2018-06-27T08:07:01.118Z,4123.13
2018-06-27T08:08:01.129Z,4016.25
2018-06-27T08:09:01.152Z,3943.13
2018-06-27T08:10:01.178Z,4123.13
2018-06-27T08:11:01.176Z,3847.50
2018-06-27T08:12:01.199Z,3926.25
2018-06-27T08:13:01.187Z,3999.38
2018-06-27T08:14:01.204Z,3830.63
2018-06-27T08:15:01.219Z,3864.38
2018-06-27T08:16:01.227Z,3948.75
2018-06-27T08:17:01.242Z,3858.75
2018-06-27T08:18:01.393Z,3898.13
2018-06-27T08:19:01.265Z,4151.25
2018-06-27T08:20:01.401Z,4201.88
2018-06-27T08:21:01.285Z,4280.63
2018-06-27T08:22:01.730Z,4100.63
2018-06-27T08:23:01.378Z,3976.88
2018-06-27T08:24:01.329Z,3948.75
2018-06-27T08:25:01.378Z,4095.00
2018-06-27T08:26:01.429Z,4162.50
2018-06-27T08:27:01.438Z,3926.25
2018-06-27T08:28:01.386Z,4145.63
2018-06-27T08:29:01.418Z,4173.75
2018-06-27T08:30:01.506Z,4398.75
2018-06-27T08:31:01.656Z,4134.38
2018-06-27T08:32:01.446Z,3960.00
2018-06-27T08:33:01.463Z,4410.00
2018-06-27T08:34:01.503Z,4280.63
2018-06-27T08:35:01.580Z,4511.25
2018-06-27T08:36:01.523Z,4325.63
2018-06-27T08:37:01.525Z,3931.88
2018-06-27T08:38:01.554Z,4055.63
2018-06-27T08:39:01.793Z,4516.88
2018-06-27T08:40:01.907Z,4291.88
2018-06-27T08:41:01.869Z,4342.50
2018-06-27T08:42:01.609Z,4314.38
2018-06-27T08:43:01.591Z,4550.63
2018-06-27T08:44:01.608Z,4522.50
2018-06-27T08:45:01.625Z,4325.63
2018-06-27T08:46:01.631Z,4286.25
2018-06-27T08:47:01.648Z,4500.00
2018-06-27T08:48:01.659Z,4483.13
2018-06-27T08:49:01.670Z,4275.00
2018-06-27T08:50:01.730Z,4038.75
2018-06-27T08:51:01.710Z,4151.25
2018-06-27T08:52:01.722Z,4483.13
2018-06-27T08:53:01.735Z,4353.75
2018-06-27T08:54:01.751Z,4348.13
2018-06-27T08:55:01.763Z,4550.63
2018-06-27T08:56:01.780Z,4601.25
2018-06-27T08:57:01.798Z,4230.00
2018-06-27T08:58:01.822Z,4359.38
2018-06-27T08:59:01.827Z,4966.88
2018-06-27T09:00:01.839Z,4702.50
2018-06-27T09:01:02.023Z,4466.25
2018-06-27T09:02:01.882Z,4269.38
2018-06-27T09:03:01.886Z,3774.38
2018-06-27T09:04:01.889Z,4207.50
2018-06-27T09:05:01.917Z,4815.00
2018-06-27T09:06:01.935Z,4415.63
2018-06-27T09:07:01.935Z,4263.75
2018-06-27T09:08:01.950Z,4460.63
2018-06-27T09:09:01.971Z,4365.00
2018-06-27T09:10:01.988Z,4516.88
2018-06-27T09:11:01.999Z,4674.38
2018-06-27T09:12:02.015Z,4843.13
2018-06-27T09:13:02.058Z,4860.00
2018-06-27T09:14:02.044Z,4995.00
2018-06-27T09:15:02.152Z,4809.38
2018-06-27T09:16:02.064Z,4640.63
2018-06-27T09:17:02.818Z,4606.88
2018-06-27T09:18:02.107Z,4432.50
2018-06-27T09:19:02.122Z,4449.38
2018-06-27T09:20:02.148Z,4955.63
2018-06-27T09:21:02.146Z,4876.88
2018-06-27T09:22:02.194Z,984.38
2018-06-27T09:23:02.195Z,5068.13
2018-06-27T09:24:02.227Z,4072.50
2018-06-27T09:25:02.207Z,4786.88
2018-06-27T09:26:02.225Z,4550.63
2018-06-27T09:27:02.248Z,4651.88
2018-06-27T09:28:02.439Z,4522.50
2018-06-27T09:29:02.265Z,4899.38
2018-06-27T09:30:02.283Z,4938.75
2018-06-27T09:31:02.299Z,4798.13
2018-06-27T09:32:02.337Z,4905.00
2018-06-27T09:33:02.324Z,4359.38
2018-06-27T09:34:02.391Z,4005.00
2018-06-27T09:35:02.351Z,4657.50
2018-06-27T09:36:02.369Z,1749.38
2018-06-27T09:37:02.383Z,995.63
2018-06-27T09:38:02.392Z,4978.13
2018-06-27T09:39:02.466Z,2176.88
2018-06-27T09:40:02.421Z,5124.38
2018-06-27T09:41:02.440Z,5270.63
2018-06-27T09:42:02.482Z,5180.63
2018-06-27T09:43:02.469Z,883.13
2018-06-27T09:44:02.481Z,4921.88
2018-06-27T09:45:02.541Z,4696.88
2018-06-27T09:46:02.500Z,4601.25
2018-06-27T09:47:02.518Z,4466.25
2018-06-27T09:48:02.547Z,5017.50
2018-06-27T09:49:02.541Z,5231.25
2018-06-27T09:50:02.554Z,2345.63
2018-06-27T09:51:02.574Z,1029.38
2018-06-27T09:52:02.582Z,2126.25
2018-06-27T09:53:02.601Z,5158.13
2018-06-27T09:54:02.607Z,4764.38
2018-06-27T09:55:02.619Z,4725.00
2018-06-27T09:56:02.633Z,5315.63
2018-06-27T09:57:02.705Z,5265.00
2018-06-27T09:58:02.658Z,5422.50
2018-06-27T09:59:02.665Z,5484.38
2018-06-27T10:00:02.686Z,5596.88
2018-06-27T10:01:02.712Z,4989.38
2018-06-27T10:02:02.736Z,4421.25
2018-06-27T10:03:02.728Z,4606.88
2018-06-27T10:04:02.745Z,4449.38
2018-06-27T10:05:02.767Z,4764.38
2018-06-27T10:06:02.773Z,5017.50
2018-06-27T10:07:02.787Z,4809.38
2018-06-27T10:08:02.889Z,4719.38
2018-06-27T10:09:02.823Z,5000.63
2018-06-27T10:10:02.831Z,4972.50
2018-06-27T10:11:02.856Z,4815.00
2018-06-27T10:12:02.863Z,4685.63
2018-06-27T10:13:02.868Z,4640.63
2018-06-27T10:14:02.916Z,4753.13
2018-06-27T10:15:02.965Z,4899.38
2018-06-27T10:16:02.929Z,5265.00
2018-06-27T10:17:03.033Z,5360.63
2018-06-27T10:18:02.961Z,5523.75
2018-06-27T10:19:02.974Z,5445.00
2018-06-27T10:20:02.995Z,3847.50
2018-06-27T10:21:03.001Z,5636.25
2018-06-27T10:22:03.026Z,6024.38
2018-06-27T10:23:03.033Z,5996.25
2018-06-27T10:24:03.068Z,5726.25
2018-06-27T10:25:03.112Z,5580.00
2018-06-27T10:26:03.088Z,5760.00
2018-06-27T10:27:03.109Z,5608.13
2018-06-27T10:28:03.121Z,5450.63
2018-06-27T10:29:03.134Z,5602.50
2018-06-27T10:30:03.152Z,5709.38
2018-06-27T10:31:03.217Z,4359.38
2018-06-27T10:32:03.183Z,5253.75
2018-06-27T10:33:03.205Z,5231.25
2018-06-27T10:34:03.222Z,1254.38
2018-06-27T10:35:03.252Z,1080.00
2018-06-27T10:36:03.255Z,1023.75
2018-06-27T10:37:03.274Z,1001.25
2018-06-27T10:38:03.279Z,1074.38
2018-06-27T10:39:03.321Z,1254.38
2018-06-27T10:40:03.373Z,2531.25
2018-06-27T10:41:03.322Z,1029.38
2018-06-27T10:42:03.336Z,950.63
2018-06-27T10:43:03.470Z,675.00
2018-06-27T10:44:03.384Z,545.63
2018-06-27T10:45:03.371Z,478.13
2018-06-27T10:46:03.405Z,517.50
2018-06-27T10:47:03.385Z,658.13
2018-06-27T10:48:03.392Z,781.88
2018-06-27T10:49:03.397Z,5287.50
2018-06-27T10:50:03.409Z,5613.75
2018-06-27T10:51:03.418Z,5501.25
2018-06-27T10:52:03.422Z,956.25
2018-06-27T10:53:03.426Z,3988.13
2018-06-27T10:54:03.445Z,916.88
2018-06-27T10:55:03.441Z,5006.25
2018-06-27T10:56:03.452Z,5006.25
2018-06-27T10:57:03.472Z,4736.25
2018-06-27T10:58:03.473Z,5180.63
2018-06-27T10:59:03.483Z,5360.63
2018-06-27T11:00:03.492Z,5321.25
2018-06-27T11:01:03.539Z,4899.38
2018-06-27T11:02:03.510Z,5028.75
2018-06-27T11:03:03.517Z,5175.00
2018-06-27T11:04:03.531Z,5186.25
2018-06-27T11:05:03.544Z,5045.63
2018-06-27T11:06:03.554Z,4843.13
2018-06-27T11:07:03.566Z,5011.88
2018-06-27T11:08:03.597Z,5062.50
2018-06-27T11:09:03.590Z,5023.13
2018-06-27T11:10:03.601Z,4944.38
2018-06-27T11:11:03.646Z,5085.00
2018-06-27T11:12:03.629Z,1653.75
2018-06-27T11:13:03.647Z,1108.13
2018-06-27T11:14:03.657Z,1282.50
2018-06-27T11:15:03.667Z,1378.13
2018-06-27T11:16:03.688Z,1468.13
2018-06-27T11:17:03.700Z,6131.25
2018-06-27T11:18:03.711Z,5968.13
2018-06-27T11:19:03.723Z,5017.50
2018-06-27T11:20:03.752Z,5107.50
2018-06-27T11:21:03.842Z,4696.88
2018-06-27T11:22:03.761Z,2581.88
2018-06-27T11:23:03.969Z,2953.13
2018-06-27T11:24:03.783Z,2379.38
2018-06-27T11:25:03.798Z,2070.00
2018-06-27T11:26:03.805Z,1614.38
2018-06-27T11:27:03.875Z,1366.88
2018-06-27T11:28:03.855Z,1192.50
2018-06-27T11:29:03.836Z,1074.38
2018-06-27T11:30:03.875Z,956.25
2018-06-27T11:31:03.863Z,883.13
2018-06-27T11:32:03.872Z,821.25
2018-06-27T11:33:03.981Z,810.00
2018-06-27T11:34:04.159Z,798.75
2018-06-27T11:35:04.080Z,798.75
2018-06-27T11:36:03.903Z,793.13
2018-06-27T11:37:03.928Z,798.75
2018-06-27T11:38:03.948Z,826.88
2018-06-27T11:39:03.929Z,871.88
2018-06-27T11:40:03.975Z,894.38
2018-06-27T11:41:03.969Z,905.63
2018-06-27T11:42:03.945Z,928.13
2018-06-27T11:43:04.042Z,961.88
2018-06-27T11:44:03.997Z,978.75
2018-06-27T11:45:03.973Z,1001.25
2018-06-27T11:46:03.972Z,1046.25
2018-06-27T11:47:03.980Z,1018.13
2018-06-27T11:48:03.992Z,1001.25
2018-06-27T11:49:04.042Z,1040.63
2018-06-27T11:50:04.006Z,1130.63
2018-06-27T11:51:03.994Z,1338.75
2018-06-27T11:52:04.002Z,5265.00
2018-06-27T11:53:04.101Z,3819.38
2018-06-27T11:54:04.011Z,2508.75
2018-06-27T11:55:04.015Z,3200.63
2018-06-27T11:56:04.023Z,2171.25
2018-06-27T11:57:04.030Z,3481.88
2018-06-27T11:58:04.031Z,4218.75
2018-06-27T11:59:04.062Z,5101.88
2018-06-27T12:00:04.047Z,4528.13
2018-06-27T12:01:04.059Z,3802.50
2018-06-27T12:02:04.047Z,4111.88
2018-06-27T12:03:04.092Z,4387.50
2018-06-27T12:04:04.079Z,4691.25
2018-06-27T12:05:04.075Z,4843.13
2018-06-27T12:06:04.100Z,5208.75
2018-06-27T12:07:04.103Z,5343.75
2018-06-27T12:08:04.114Z,3386.25
2018-06-27T12:09:04.120Z,2098.13
2018-06-27T12:10:04.153Z,2092.50
2018-06-27T12:11:04.141Z,1845.00
2018-06-27T12:12:04.152Z,1721.25
2018-06-27T12:13:04.164Z,1687.50
2018-06-27T12:14:04.170Z,1698.75
2018-06-27T12:15:04.196Z,1743.75
2018-06-27T12:16:04.193Z,1743.75
2018-06-27T12:17:04.212Z,1963.13
2018-06-27T12:18:04.207Z,2396.25
2018-06-27T12:19:04.211Z,1665.00
2018-06-27T12:20:04.232Z,1614.38
2018-06-27T12:21:04.241Z,1524.38
2018-06-27T12:22:04.244Z,1501.88
2018-06-27T12:23:04.251Z,1468.13
2018-06-27T12:24:04.283Z,1479.38
2018-06-27T12:25:04.276Z,1513.13
2018-06-27T12:26:04.269Z,1670.63
2018-06-27T12:27:04.292Z,1586.25
2018-06-27T12:28:04.331Z,1490.63
2018-06-27T12:29:04.291Z,1299.38
2018-06-27T12:30:04.305Z,1316.25
2018-06-27T12:31:04.310Z,1383.75
2018-06-27T12:32:04.313Z,1428.75
2018-06-27T12:33:04.321Z,1479.38
2018-06-27T12:34:04.323Z,1546.88
2018-06-27T12:35:04.347Z,1546.88
2018-06-27T12:36:04.362Z,1524.38
2018-06-27T12:37:04.345Z,1445.63
2018-06-27T12:38:04.356Z,1395.00
2018-06-27T12:39:04.356Z,1400.63
2018-06-27T12:40:04.356Z,1254.38
2018-06-27T12:41:04.368Z,1220.63
2018-06-27T12:42:04.377Z,1282.50
2018-06-27T12:43:04.464Z,1383.75
2018-06-27T12:44:04.533Z,1288.13
2018-06-27T12:45:04.408Z,1321.88
2018-06-27T12:46:04.394Z,1293.75
2018-06-27T12:47:04.398Z,1254.38
2018-06-27T12:48:04.407Z,1305.00
2018-06-27T12:49:04.414Z,1203.75
2018-06-27T12:50:04.514Z,1125.00
2018-06-27T12:51:04.420Z,1186.88
2018-06-27T12:52:04.423Z,1237.50
2018-06-27T12:53:04.421Z,1383.75
2018-06-27T12:54:04.432Z,1563.75
2018-06-27T12:55:04.436Z,1726.88
2018-06-27T12:56:04.441Z,1710.00
2018-06-27T12:57:04.443Z,1693.13
2018-06-27T12:58:04.453Z,1698.75
2018-06-27T12:59:04.452Z,1597.50
2018-06-27T13:00:04.491Z,1468.13
2018-06-27T13:01:04.463Z,1305.00